Time;durP1;ratioP1;P1;durP2;ratioP2;P2;SDS_P1;SDS_P2;PMS_P1;PMS_P2;Temp;Humidity;BMP_temperature;BMP_pressure;BME280_temperature;BME280_humidity;BME280_pressure;Samples;Min_cycle;Max_cycle;Signal;HPM_P1;HPM_P2
2023/02/14 00:00:45;;;;;;;23.70;11.75;;;1.70;99.90;;;-144.05;82.35;57046.38;5013529;28;20378;-82
2023/02/14 00:03:13;;;;;;;19.42;11.35;;;1.60;99.90;;;-144.05;82.96;57078.22;4996071;28;20088;-84
2023/02/14 00:05:39;;;;;;;23.27;11.65;;;1.60;99.90;;;-144.05;82.66;57061.22;4996247;28;20144;-84
2023/02/14 00:08:05;;;;;;;19.23;11.25;;;1.60;99.90;;;-144.05;82.68;57076.09;4996480;28;20030;-85
2023/02/14 00:10:30;;;;;;;19.70;11.43;;;1.50;99.90;;;-144.05;82.51;57056.97;5013858;28;20030;-86
2023/02/14 00:12:56;;;;;;;20.23;12.02;;;1.50;99.90;;;-144.05;82.61;57016.63;4996013;28;20037;-83
2023/02/14 00:15:22;;;;;;;24.05;12.23;;;1.50;99.90;;;-144.05;83.02;57031.50;4995781;28;20481;-84
2023/02/14 00:17:55;;;;;;;22.20;12.15;;;1.60;99.90;;;-144.05;83.69;57063.34;4996021;28;20029;-85
2023/02/14 00:20:27;;;;;;;22.38;12.30;;;1.70;99.90;;;-144.05;82.52;57042.13;4996116;28;20037;-85
2023/02/14 00:22:53;;;;;;;18.67;10.77;;;1.60;99.90;;;-144.05;82.52;57063.34;5013544;28;20493;-84
2023/02/14 00:25:19;;;;;;;17.42;10.80;;;1.60;99.90;;;-144.05;82.36;57052.75;4995357;28;20354;-85
2023/02/14 00:27:45;;;;;;;21.20;11.52;;;1.50;99.90;;;-144.05;82.29;57027.25;4995897;28;20034;-84
2023/02/14 00:30:13;;;;;;;19.55;11.40;;;1.40;99.90;;;-144.05;82.56;57061.22;4994919;28;20041;-85
2023/02/14 00:32:41;;;;;;;19.70;10.90;;;1.30;99.90;;;-144.05;82.49;57076.09;5012802;28;20041;-84
2023/02/14 00:35:09;;;;;;;17.00;10.02;;;1.30;99.90;;;-144.05;82.28;57073.97;4995174;28;20038;-85
2023/02/14 00:37:36;;;;;;;21.05;10.80;;;1.20;99.90;;;-144.05;82.36;57071.84;4994565;28;20120;-84
2023/02/14 00:40:04;;;;;;;16.35;10.32;;;1.20;99.90;;;-144.05;82.19;57035.75;5012176;28;20076;-85
2023/02/14 00:42:29;;;;;;;18.77;11.07;;;1.30;99.90;;;-144.05;82.31;57061.22;5012951;28;20061;-86
2023/02/14 00:44:55;;;;;;;18.90;9.98;;;1.30;99.90;;;-144.05;82.26;57048.50;4995991;28;20037;-83
2023/02/14 00:47:21;;;;;;;18.77;10.80;;;1.20;99.90;;;-144.05;82.04;57042.13;4996056;28;20030;-84
2023/02/14 00:49:47;;;;;;;20.60;11.25;;;1.10;99.90;;;-144.05;82.09;57090.97;4994507;28;20114;-84
2023/02/14 00:52:13;;;;;;;19.52;11.32;;;1.20;99.90;;;-144.05;82.12;57046.38;4994796;28;20054;-84
2023/02/14 00:54:39;;;;;;;22.73;11.02;;;1.30;99.90;;;-144.05;82.12;57061.22;4995091;28;20433;-86
2023/02/14 00:57:04;;;;;;;25.45;14.40;;;1.40;99.90;;;-144.05;82.28;57018.75;4994891;28;20040;-82
2023/02/14 00:59:30;;;;;;;29.13;16.58;;;1.50;99.90;;;-144.05;82.32;57069.72;5012191;28;20045;-85
2023/02/14 01:01:56;;;;;;;23.60;13.07;;;1.50;99.90;;;-144.05;81.70;57078.22;4995138;28;20041;-85
2023/02/14 01:04:22;;;;;;;22.27;12.15;;;1.40;99.90;;;-144.05;81.53;57048.50;4994643;28;20037;-85
2023/02/14 01:06:48;;;;;;;27.02;13.30;;;1.30;99.90;;;-144.05;81.63;57063.34;4994602;28;20030;-85
2023/02/14 01:09:14;;;;;;;29.17;15.75;;;1.10;99.90;;;-144.05;81.83;57063.34;4998176;28;20029;-84
2023/02/14 01:11:40;;;;;;;33.40;16.75;;;1.10;99.90;;;-144.05;82.14;57069.72;5009924;28;20030;-84
2023/02/14 01:14:06;;;;;;;30.65;16.25;;;1.10;99.90;;;-144.05;82.25;57059.09;5023899;28;20068;-81
2023/02/14 01:16:32;;;;;;;26.67;14.48;;;1.00;99.90;;;-144.05;82.19;57052.75;5000220;28;20038;-83
2023/02/14 01:19:00;;;;;;;32.72;15.70;;;1.00;99.90;;;-144.05;82.09;57071.84;5017084;28;20111;-84
2023/02/14 01:21:31;;;;;;;36.70;17.33;;;0.90;99.90;;;-144.05;82.31;57052.75;5000691;28;20036;-83
2023/02/14 01:24:03;;;;;;;25.35;13.90;;;0.90;99.90;;;-144.05;82.11;57061.22;4998054;28;20030;-83
2023/02/14 01:26:30;;;;;;;21.67;11.70;;;0.90;99.90;;;-144.05;81.94;57069.72;5015118;28;20567;-83
2023/02/14 01:28:56;;;;;;;23.50;13.63;;;0.80;99.90;;;-144.05;82.05;57078.22;4996110;28;20393;-86
2023/02/14 01:31:27;;;;;;;23.48;12.85;;;0.80;99.90;;;-144.05;82.48;57050.63;5012804;28;20041;-84
2023/02/14 01:33:55;;;;;;;24.65;12.88;;;0.70;99.90;;;-144.05;82.48;57061.22;4995441;28;20036;-82
2023/02/14 01:36:38;;;;;;;29.67;13.88;;;0.70;99.90;;;-144.05;82.50;57061.22;5003346;28;20037;-85
2023/02/14 01:39:12;;;;;;;29.17;15.07;;;0.70;99.90;;;-144.05;82.97;57063.34;5024994;28;20041;-84
2023/02/14 01:41:42;;;;;;;32.13;14.67;;;0.80;99.90;;;-144.05;83.67;57071.84;5007251;28;20036;-85
2023/02/14 01:44:14;;;;;;;30.60;16.40;;;0.90;99.90;;;-144.05;84.13;57048.50;5007630;28;20277;-85
2023/02/14 01:46:43;;;;;;;32.63;14.60;;;1.10;99.90;;;-144.05;83.81;57023.00;5005617;28;20125;-84
2023/02/14 01:49:36;;;;;;;31.17;15.13;;;1.20;99.90;;;-144.05;84.23;57056.97;5024962;28;20022;-85
2023/02/14 01:52:15;;;;;;;26.20;14.43;;;1.30;99.90;;;-144.05;83.54;57056.97;5010984;28;20034;-86
2023/02/14 01:54:53;;;;;;;29.33;15.00;;;1.30;99.90;;;-144.05;83.69;57069.72;5027633;28;20037;-85
2023/02/14 01:57:27;;;;;;;22.27;12.45;;;1.30;99.90;;;-144.05;83.19;57056.97;5009222;28;20034;-86
2023/02/14 02:00:55;;;;;;;24.17;12.20;;;1.20;99.90;;;-144.05;82.66;57061.22;5010807;28;20030;-86
2023/02/14 02:02:45;;;;;;;22.70;12.05;;;1.00;99.90;;;-144.05;82.88;57084.59;5027916;28;20105;-86
2023/02/14 02:05:14;;;;;;;22.58;12.75;;;0.90;99.90;;;-144.05;82.65;57084.59;5010619;28;20033;-85
2023/02/14 02:07:41;;;;;;;19.90;11.52;;;0.80;99.90;;;-144.05;81.79;57059.09;5009162;28;20096;-85
2023/02/14 02:10:08;;;;;;;19.27;10.77;;;0.70;99.90;;;-144.05;81.64;57050.63;5008661;28;20030;-85
2023/02/14 02:12:36;;;;;;;15.55;10.10;;;0.70;99.90;;;-144.05;82.06;57056.97;5008633;28;20128;-85
2023/02/14 02:15:05;;;;;;;19.60;10.45;;;0.60;99.90;;;-144.05;82.35;57054.88;5009898;28;20030;-85
2023/02/14 02:18:18;;;;;;;18.83;11.10;;;0.50;99.90;;;-144.05;82.66;57076.09;5027009;28;20500;-85
2023/02/14 02:21:37;;;;;;;19.52;9.88;;;0.50;99.90;;;-144.05;82.34;57073.97;5009231;28;20103;-85
2023/02/14 02:24:37;;;;;;;17.27;8.90;;;0.50;99.90;;;-144.05;82.59;57076.09;5008869;28;20033;-83
2023/02/14 02:27:56;;;;;;;19.25;9.98;;;0.30;99.90;;;-144.05;82.69;57078.22;5008473;28;20026;-85
2023/02/14 02:31:34;;;;;;;16.85;8.98;;;0.30;99.90;;;-144.05;82.65;57093.09;5008305;28;20090;-85
2023/02/14 02:34:21;;;;;;;16.60;9.60;;;0.20;99.90;;;-144.05;82.67;57080.34;4995958;28;20034;-84
2023/02/14 02:37:36;;;;;;;19.02;10.43;;;0.30;99.90;;;-144.05;81.97;57080.34;5007580;28;20064;-86
2023/02/14 02:40:49;;;;;;;22.23;10.20;;;0.20;99.90;;;-144.05;82.19;57082.47;5006794;28;20080;-85
2023/02/14 02:43:42;;;;;;;18.50;10.10;;;0.20;99.90;;;-144.05;82.96;57090.97;5006858;28;20033;-85
2023/02/14 02:46:50;;;;;;;22.38;11.55;;;0.20;99.90;;;-144.05;82.67;57086.72;5024907;28;20022;-83
2023/02/14 02:53:26;;;;;;;17.55;10.13;;;0.40;99.90;;;-144.05;81.45;57056.97;5025155;28;20520;-83
2023/02/14 02:59:21;;;;;;;17.45;9.02;;;0.60;99.90;;;-144.05;82.57;57059.09;5024798;28;20037;-86
2023/02/14 03:02:19;;;;;;;17.63;9.77;;;0.70;99.90;;;-144.05;82.26;57071.84;5005992;28;20034;-83
2023/02/14 03:04:58;;;;;;;17.27;9.23;;;0.80;99.90;;;-144.05;82.42;57069.72;5007406;28;20062;-83
2023/02/14 03:07:39;;;;;;;18.00;9.45;;;0.70;99.90;;;-144.05;82.18;57080.34;5005082;28;20124;-83
2023/02/14 03:10:19;;;;;;;19.50;10.55;;;0.50;99.90;;;-144.05;82.29;57082.47;5004780;28;20180;-85
2023/02/14 03:13:21;;;;;;;15.45;8.73;;;0.50;99.90;;;-144.05;81.67;57078.22;5004973;28;20030;-84
2023/02/14 03:16:23;;;;;;;18.60;9.48;;;0.30;99.90;;;-144.05;82.44;57067.59;5004590;28;20054;-84
2023/02/14 03:22:32;;;;;;;17.83;8.75;;;0.30;99.90;;;-144.05;82.70;57061.22;5022695;28;20049;-84
2023/02/14 03:25:48;;;;;;;18.60;9.45;;;0.30;99.90;;;-144.05;82.78;57101.59;5005080;28;20338;-84
2023/02/14 03:28:56;;;;;;;14.23;9.02;;;0.30;99.90;;;-144.05;82.82;57078.22;5004731;28;20021;-85
2023/02/14 03:31:38;;;;;;;15.00;9.05;;;0.20;99.90;;;-144.05;82.52;57082.47;5004604;28;20512;-84
2023/02/14 03:34:17;;;;;;;17.58;8.40;;;0.20;99.90;;;-144.05;82.54;57093.09;5004050;28;20045;-82
2023/02/14 03:37:31;;;;;;;14.98;8.88;;;0.10;99.90;;;-144.05;82.64;57069.72;5003507;28;20037;-85
2023/02/14 03:40:13;;;;;;;17.63;8.40;;;0.20;99.90;;;-144.05;83.04;57082.47;4999390;28;20041;-82
2023/02/14 03:43:11;;;;;;;16.02;9.05;;;0.30;99.90;;;-144.05;82.42;57078.22;5002574;28;20390;-83
2023/02/14 03:46:21;;;;;;;18.30;9.30;;;0.30;99.90;;;-144.05;82.26;57073.97;5002813;28;20041;-83
2023/02/14 03:48:50;;;;;;;14.15;8.68;;;0.20;99.90;;;-144.05;82.14;57056.97;5002671;28;20054;-83
2023/02/14 03:51:22;;;;;;;16.08;8.38;;;0.10;99.90;;;-144.05;82.37;57103.72;5002128;28;20040;-83
2023/02/14 03:53:56;;;;;;;16.00;8.98;;;0.10;99.90;;;-144.05;82.40;57061.22;5002622;28;20030;-83
2023/02/14 03:56:45;;;;;;;23.77;9.52;;;0.00;99.90;;;-144.05;82.47;57067.59;5001926;28;20038;-81
2023/02/14 03:59:26;;;;;;;16.50;9.55;;;0.00;99.90;;;-144.05;82.78;57086.72;5001880;28;20062;-83
2023/02/14 04:02:16;;;;;;;15.32;8.57;;;0.10;99.90;;;-144.05;82.42;57090.97;5019470;28;20095;-83
2023/02/14 04:04:50;;;;;;;17.38;8.68;;;0.10;99.90;;;-144.05;82.11;57076.09;5001969;28;20026;-84
2023/02/14 04:07:20;;;;;;;20.95;9.68;;;0.00;99.90;;;-144.05;82.27;57097.34;5002062;28;20563;-83
2023/02/14 04:09:47;;;;;;;18.08;8.82;;;0.10;99.90;;;-144.05;82.61;57090.97;5001058;28;20033;-84
2023/02/14 04:12:16;;;;;;;18.27;9.10;;;0.20;99.90;;;-144.05;82.42;57095.22;4999517;28;20040;-85
2023/02/14 04:14:42;;;;;;;16.58;9.05;;;0.20;99.90;;;-144.05;82.14;57082.47;5018297;28;20042;-83
2023/02/14 04:19:53;;;;;;;17.13;8.77;;;0.10;99.90;;;-144.05;82.37;57101.59;5018711;28;20036;-81
2023/02/14 04:22:19;;;;;;;16.73;8.73;;;0.10;99.90;;;-144.05;82.66;57073.97;5000611;28;20030;-84
2023/02/14 04:24:45;;;;;;;15.60;8.77;;;0.00;99.90;;;-144.05;82.69;57071.84;5019322;28;20053;-83
2023/02/14 04:27:11;;;;;;;17.15;9.75;;;0.10;99.90;;;-144.05;82.91;57065.47;5001563;28;20155;-82
2023/02/14 04:29:51;;;;;;;19.73;9.45;;;0.20;99.90;;;-144.05;83.01;57065.47;5018410;28;20026;-83
2023/02/14 04:32:21;;;;;;;24.80;10.38;;;0.20;99.90;;;-144.05;82.78;57052.75;5001021;28;20030;-83
2023/02/14 04:34:48;;;;;;;20.52;10.40;;;0.20;99.90;;;-144.05;83.09;57073.97;5000900;28;20444;-82
2023/02/14 04:37:18;;;;;;;18.45;9.82;;;0.30;99.90;;;-144.05;83.08;57080.34;5000192;28;20025;-83
2023/02/14 04:39:44;;;;;;;18.63;9.63;;;0.30;99.90;;;-144.05;82.42;57095.22;5000691;28;20107;-83
2023/02/14 04:42:10;;;;;;;18.15;8.50;;;0.10;99.90;;;-144.05;82.34;57076.09;5000857;28;20093;-83
2023/02/14 04:44:39;;;;;;;15.32;8.95;;;0.00;99.90;;;-144.05;82.78;57071.84;5001261;28;20056;-83
2023/02/14 04:47:07;;;;;;;18.35;9.98;;;-0.10;99.90;;;-144.05;83.13;57082.47;5000480;28;20030;-84
2023/02/14 04:49:34;;;;;;;21.48;9.30;;;-0.10;99.90;;;-144.05;83.23;57078.22;5000156;28;20500;-85
2023/02/14 04:52:01;;;;;;;16.67;9.18;;;0.00;99.90;;;-144.05;83.23;57090.97;5000683;28;20037;-84
2023/02/14 04:54:27;;;;;;;18.48;9.15;;;0.00;99.90;;;-144.05;83.01;57078.22;5018460;28;20033;-84
2023/02/14 04:56:53;;;;;;;16.35;8.27;;;0.00;99.90;;;-144.05;83.02;57095.22;5002409;28;20037;-82
2023/02/14 04:59:19;;;;;;;18.08;8.50;;;-0.10;99.90;;;-144.05;83.14;57069.72;5001122;28;20466;-82
2023/02/14 05:01:45;;;;;;;20.35;9.63;;;0.00;99.90;;;-144.05;83.01;57101.59;5003572;28;20033;-84
2023/02/14 05:04:11;;;;;;;16.90;9.55;;;0.00;99.90;;;-144.05;83.27;57065.47;5002454;28;20033;-83
2023/02/14 05:06:37;;;;;;;18.42;9.40;;;0.00;99.90;;;-144.05;83.16;57097.34;5003681;28;20539;-83
2023/02/14 05:09:03;;;;;;;18.20;9.82;;;0.00;99.90;;;-144.05;83.12;57086.72;5001575;28;20030;-83
2023/02/14 05:11:29;;;;;;;20.35;9.65;;;-0.10;99.90;;;-144.05;83.02;57090.97;5002458;28;20121;-82
2023/02/14 05:13:55;;;;;;;15.60;9.13;;;-0.10;99.90;;;-144.05;83.01;57090.97;5005323;28;20026;-84
2023/02/14 05:16:21;;;;;;;16.70;8.45;;;-0.20;99.90;;;-144.05;83.03;57078.22;5029512;28;20049;-82
2023/02/14 05:18:47;;;;;;;15.55;8.23;;;-0.20;99.90;;;-144.05;83.01;57086.72;5006714;28;20034;-84
2023/02/14 05:21:13;;;;;;;17.17;9.02;;;-0.30;99.90;;;-144.05;83.21;57071.84;5006084;28;20057;-82
2023/02/14 05:23:40;;;;;;;19.35;10.35;;;-0.30;99.90;;;-144.05;83.52;57097.34;5024362;28;20493;-83
2023/02/14 05:26:06;;;;;;;18.50;9.48;;;-0.40;99.90;;;-144.05;83.55;57069.72;5008030;28;20022;-82
2023/02/14 05:28:32;;;;;;;19.15;10.95;;;-0.40;99.90;;;-144.05;84.14;57099.47;5006084;28;20030;-83
2023/02/14 05:30:58;;;;;;;23.27;10.50;;;-0.30;99.90;;;-144.05;84.28;57114.34;5005984;28;20030;-81
2023/02/14 05:33:25;;;;;;;22.48;11.43;;;-0.20;99.90;;;-144.05;84.24;57097.34;5008959;28;20050;-81
2023/02/14 05:35:51;;;;;;;18.23;10.15;;;-0.10;99.90;;;-144.05;84.19;57095.22;5003667;28;20037;-80
2023/02/14 05:38:18;;;;;;;21.10;10.77;;;0.00;99.90;;;-144.05;83.95;57101.59;5020060;28;20026;-82
2023/02/14 05:40:44;;;;;;;21.02;10.95;;;0.00;99.90;;;-144.05;83.67;57063.34;5019078;28;20030;-81
2023/02/14 05:43:11;;;;;;;19.92;10.50;;;0.00;99.90;;;-144.05;83.43;57080.34;5001509;28;20105;-81
2023/02/14 05:45:37;;;;;;;22.42;10.85;;;-0.10;99.90;;;-144.05;83.36;57082.47;5019945;28;20021;-85
2023/02/14 05:48:04;;;;;;;22.70;10.23;;;-0.10;99.90;;;-144.05;83.12;57078.22;5000321;28;20121;-78
2023/02/14 05:50:30;;;;;;;20.00;10.20;;;-0.20;99.90;;;-144.05;83.38;57082.47;5002483;28;20122;-82
2023/02/14 05:52:56;;;;;;;19.35;9.70;;;-0.20;99.90;;;-144.05;83.09;57082.47;5019505;28;20050;-78
2023/02/14 05:55:23;;;;;;;19.75;9.45;;;-0.30;99.90;;;-144.05;83.19;57095.22;5020175;28;20057;-83
2023/02/14 05:57:49;;;;;;;16.35;9.18;;;-0.40;99.90;;;-144.05;83.49;57097.34;5019457;28;20105;-81
2023/02/14 06:00:16;;;;;;;18.85;9.63;;;-0.40;99.90;;;-144.05;83.52;57103.72;5019257;28;20472;-81
2023/02/14 06:02:42;;;;;;;21.25;9.73;;;-0.40;99.90;;;-144.05;83.52;57069.72;5020649;28;20025;-80
2023/02/14 06:05:08;;;;;;;19.45;10.30;;;-0.40;99.90;;;-144.05;83.30;57088.84;5022991;28;20025;-80
2023/02/14 06:07:34;;;;;;;19.80;9.70;;;-0.30;99.90;;;-144.05;83.03;57086.72;5023100;28;20077;-80
2023/02/14 06:10:00;;;;;;;16.92;10.52;;;-0.30;99.90;;;-144.05;83.89;57090.97;5004503;28;20389;-80
2023/02/14 06:12:26;;;;;;;22.23;10.20;;;-0.30;99.90;;;-144.05;83.61;57065.47;5024213;28;20029;-79
2023/02/14 06:14:52;;;;;;;18.58;9.40;;;-0.30;99.90;;;-144.05;83.47;57067.59;5022603;28;20037;-81
2023/02/14 06:17:18;;;;;;;17.88;9.50;;;-0.30;99.90;;;-144.05;83.39;57061.22;5003488;28;20425;-82
2023/02/14 06:19:44;;;;;;;17.35;9.10;;;-0.40;99.90;;;-144.05;83.09;57093.09;5022214;28;20034;-81
2023/02/14 06:22:10;;;;;;;19.60;9.65;;;-0.50;99.90;;;-144.05;83.33;57069.72;5022357;28;20062;-79
2023/02/14 06:24:36;;;;;;;21.45;10.77;;;-0.50;99.90;;;-144.05;83.13;57110.09;5022555;28;20037;-80
2023/02/14 06:27:02;;;;;;;18.70;10.07;;;-0.60;99.90;;;-144.05;83.36;57069.72;5004685;28;20093;-79
2023/02/14 06:29:28;;;;;;;21.48;10.75;;;-0.50;99.90;;;-144.05;83.31;57112.22;5021570;28;20091;-81
2023/02/14 06:31:53;;;;;;;19.10;9.93;;;-0.50;99.90;;;-144.05;83.52;57082.47;5005688;28;20106;-80
2023/02/14 06:34:19;;;;;;;20.10;10.18;;;-0.50;99.90;;;-144.05;83.09;57093.09;5021090;28;20494;-79
2023/02/14 06:36:45;;;;;;;20.83;10.32;;;-0.50;99.90;;;-144.05;83.06;57103.72;5003845;28;20072;-80
2023/02/14 06:39:11;;;;;;;23.67;10.38;;;-0.60;99.90;;;-144.05;83.06;57101.59;5004044;28;20104;-82
2023/02/14 06:41:37;;;;;;;21.77;12.18;;;-0.70;99.90;;;-144.05;83.41;57080.34;5004333;28;20100;-82
2023/02/14 06:44:03;;;;;;;26.00;11.05;;;-0.60;99.90;;;-144.05;83.27;57067.59;5004035;28;20113;-82
2023/02/14 06:46:29;;;;;;;21.25;11.20;;;-0.50;99.90;;;-144.05;83.26;57090.97;5004762;28;20033;-81
2023/02/14 06:48:55;;;;;;;21.50;10.60;;;-0.50;99.90;;;-144.05;83.16;57122.84;5021828;28;20034;-80
2023/02/14 06:51:20;;;;;;;16.88;9.88;;;-0.50;99.90;;;-144.05;83.18;57056.97;5021986;28;20026;-81
2023/02/14 06:53:46;;;;;;;18.88;9.85;;;-0.50;99.90;;;-144.05;83.16;57069.72;5022004;28;20465;-81
2023/02/14 06:56:12;;;;;;;21.17;10.77;;;-0.50;99.90;;;-144.05;83.29;57116.47;5021180;28;20041;-80
2023/02/14 06:58:38;;;;;;;18.95;10.27;;;-0.60;99.90;;;-144.05;83.50;57063.34;5021286;28;20030;-80
2023/02/14 07:01:04;;;;;;;21.48;11.50;;;-0.60;99.90;;;-144.05;83.74;57078.22;5023346;28;20138;-82
2023/02/14 07:03:30;;;;;;;18.88;10.70;;;-0.50;99.90;;;-144.05;83.47;57080.34;5022470;28;20033;-81
2023/02/14 07:05:57;;;;;;;22.55;10.90;;;-0.50;99.90;;;-144.05;83.66;57078.22;5003806;28;20064;-80
2023/02/14 07:08:23;;;;;;;19.67;10.68;;;-0.50;99.90;;;-144.05;83.72;57105.84;5022495;28;20037;-79
2023/02/14 07:10:48;;;;;;;21.65;10.40;;;-0.50;99.90;;;-144.05;83.59;57093.09;5023041;28;20088;-82
2023/02/14 07:13:14;;;;;;;21.38;11.18;;;-0.50;99.90;;;-144.05;83.42;57063.34;5022005;28;20481;-80
2023/02/14 07:15:40;;;;;;;25.65;11.57;;;-0.50;99.90;;;-144.05;83.66;57069.72;5004812;28;20058;-82
2023/02/14 07:18:09;;;;;;;20.75;11.00;;;-0.30;99.90;;;-144.05;83.64;57082.47;5007353;28;20030;-84
2023/02/14 07:20:35;;;;;;;22.33;11.15;;;-0.30;99.90;;;-144.05;83.81;57084.59;5009945;28;20033;-83
2023/02/14 07:23:01;;;;;;;22.63;11.00;;;-0.10;99.90;;;-144.05;83.55;57071.84;5024876;28;20415;-82
2023/02/14 07:25:27;;;;;;;26.25;11.57;;;0.00;99.90;;;-144.05;83.88;57082.47;5025848;28;20030;-83
2023/02/14 07:27:53;;;;;;;24.17;13.27;;;0.20;99.90;;;-144.05;83.84;57061.22;5007240;28;20037;-81
2023/02/14 07:30:19;;;;;;;31.75;13.93;;;0.30;99.90;;;-144.05;84.17;57044.25;5022126;28;20033;-80
2023/02/14 07:32:45;;;;;;;33.90;15.73;;;0.50;99.90;;;-144.05;84.22;57063.34;5023979;28;20057;-81
2023/02/14 07:35:12;;;;;;;23.92;12.93;;;0.80;99.90;;;-144.05;84.09;57059.09;5015040;22;20053;-81
2023/02/14 07:37:38;;;;;;;22.20;11.18;;;1.00;99.90;;;-144.05;83.75;57056.97;5022933;28;20124;-81
2023/02/14 07:40:06;;;;;;;22.95;11.55;;;1.30;99.90;;;-144.05;83.64;57065.47;5023575;28;20045;-81
2023/02/14 07:42:32;;;;;;;16.67;10.00;;;1.50;99.90;;;-144.05;84.17;57044.25;5023651;28;20052;-80
2023/02/14 07:44:58;;;;;;;18.98;9.65;;;1.80;99.90;;;-144.05;83.87;57042.13;5040926;28;20485;-80
2023/02/14 07:47:24;;;;;;;23.83;10.85;;;2.20;99.90;;;-144.05;83.39;57020.88;5040828;28;20017;-81
2023/02/14 07:49:50;;;;;;;16.77;10.05;;;2.50;99.90;;;-144.05;82.01;57033.63;5036206;28;20032;-82
2023/02/14 07:52:17;;;;;;;16.75;9.25;;;2.80;99.90;;;-144.05;81.38;57006.00;5034932;28;20021;-82
2023/02/14 07:54:43;;;;;;;18.15;9.23;;;2.90;99.90;;;-144.05;79.67;56984.78;5018254;28;20021;-82
2023/02/14 07:57:08;;;;;;;19.30;9.15;;;3.00;99.90;;;-144.05;77.86;56999.63;5017819;28;20122;-80
2023/02/14 07:59:34;;;;;;;15.68;8.80;;;3.30;99.90;;;-144.05;76.91;56978.41;5018570;28;20173;-81
2023/02/14 08:02:00;;;;;;;15.07;8.43;;;3.70;99.90;;;-144.05;76.08;56986.91;5017833;28;20030;-79
2023/02/14 08:04:26;;;;;;;18.90;9.15;;;4.20;99.90;;;-144.05;75.05;56972.03;5017243;28;20037;-82
2023/02/14 08:06:53;;;;;;;15.95;9.25;;;4.50;99.90;;;-144.05;72.97;56974.16;5035522;28;20025;-83
2023/02/14 08:09:23;;;;;;;17.75;8.35;;;4.80;99.90;;;-144.05;72.39;56999.63;5018535;28;20426;-81
2023/02/14 08:14:43;;;;;;;15.70;8.48;;;5.10;99.90;;;-144.05;72.25;56986.91;5037435;28;20035;-83
2023/02/14 08:17:12;;;;;;;14.95;8.55;;;5.30;99.90;;;-144.05;72.66;56974.16;5019566;28;20037;-80
2023/02/14 08:19:39;;;;;;;16.48;8.80;;;5.40;99.90;;;-144.05;72.94;57006.00;5037956;28;20026;-83
2023/02/14 08:22:06;;;;;;;20.30;10.02;;;5.30;99.90;;;-144.05;72.52;56993.25;5038537;28;20116;-82
2023/02/14 08:24:32;;;;;;;16.55;9.00;;;5.30;99.90;;;-144.05;72.36;56980.53;5037626;28;20068;-83
2023/02/14 08:26:58;;;;;;;18.00;10.60;;;5.30;99.90;;;-144.05;72.56;56976.28;5038786;28;20104;-82
2023/02/14 08:29:25;;;;;;;20.30;9.85;;;5.40;99.90;;;-144.05;72.26;56997.50;5047009;28;20049;-81
2023/02/14 08:31:51;;;;;;;21.20;10.25;;;5.60;99.90;;;-144.05;71.64;56984.78;5034088;28;20084;-81
2023/02/14 08:34:18;;;;;;;16.17;9.80;;;5.90;99.90;;;-144.05;71.48;57001.75;5038180;28;20017;-81
2023/02/14 08:36:44;;;;;;;24.92;10.98;;;6.00;99.90;;;-144.05;70.61;56972.03;5037554;28;20105;-80
2023/02/14 08:39:10;;;;;;;22.65;11.90;;;6.20;99.90;;;-144.05;69.30;56986.91;5037917;28;20025;-80
2023/02/14 08:41:36;;;;;;;16.92;10.82;;;6.40;99.90;;;-144.05;69.21;56967.78;5019592;28;20392;-82
2023/02/14 08:44:02;;;;;;;30.55;11.77;;;6.60;99.90;;;-144.05;67.40;56991.13;5018521;28;20091;-79
2023/02/14 08:46:28;;;;;;;22.60;12.98;;;6.80;99.90;;;-144.05;66.32;56993.25;5037745;28;20048;-82
2023/02/14 08:48:55;;;;;;;21.85;11.70;;;7.00;99.90;;;-144.05;65.55;56989.00;5023805;28;20025;-81
2023/02/14 08:51:22;;;;;;;21.98;13.05;;;7.20;99.90;;;-144.05;64.55;56976.28;5021617;28;20032;-82
2023/02/14 08:53:50;;;;;;;32.92;13.52;;;7.30;99.90;;;-144.05;63.87;56969.91;5023101;28;20213;-82
2023/02/14 08:56:20;;;;;;;25.67;13.23;;;7.40;99.90;;;-144.05;63.11;56980.53;5027207;28;20025;-81
2023/02/14 08:58:46;;;;;;;24.45;13.10;;;7.50;99.90;;;-144.05;62.86;56967.78;5026617;28;20547;-81
2023/02/14 09:01:16;;;;;;;26.42;13.60;;;7.80;99.90;;;-144.05;61.81;56969.91;5022825;28;20116;-80
2023/02/14 09:03:43;;;;;;;25.73;13.05;;;7.90;99.90;;;-144.05;61.02;56976.28;5036738;28;20029;-81
2023/02/14 09:06:15;;;;;;;26.52;13.00;;;8.10;99.90;;;-144.05;60.26;56959.28;5020992;28;20025;-83
2023/02/14 09:08:43;;;;;;;25.92;13.10;;;8.20;99.90;;;-144.05;59.50;56965.66;5033495;28;20017;-82
2023/02/14 09:11:19;;;;;;;28.25;13.65;;;8.40;99.90;;;-144.05;59.37;56976.28;5015604;28;20026;-80
2023/02/14 09:13:47;;;;;;;28.15;13.65;;;8.50;99.90;;;-144.05;58.82;56952.91;5033971;28;20025;-80
2023/02/14 09:16:16;;;;;;;31.63;13.65;;;8.80;99.90;;;-144.05;58.82;56961.41;5033705;28;20029;-82
2023/02/14 09:18:45;;;;;;;27.35;14.85;;;9.00;99.90;;;-144.05;58.09;56959.28;5033561;28;20096;-82
2023/02/14 09:21:20;;;;;;;26.85;13.85;;;9.20;99.90;;;-144.05;57.85;56972.03;5015673;28;20029;-81
2023/02/14 09:23:46;;;;;;;23.92;13.05;;;9.50;99.90;;;-144.05;57.34;56965.66;5034767;28;20029;-83
2023/02/14 09:26:15;;;;;;;25.45;12.68;;;9.60;99.90;;;-144.05;55.90;56957.16;5025789;28;20097;-84
2023/02/14 09:28:41;;;;;;;25.88;12.82;;;9.90;99.90;;;-144.05;55.80;56980.53;5045542;28;20025;-82
2023/02/14 09:31:22;;;;;;;28.88;13.43;;;10.00;99.90;;;-144.05;55.57;56938.03;5039785;28;20033;-81
2023/02/14 09:33:50;;;;;;;31.80;14.60;;;10.00;99.90;;;-144.05;55.55;56950.78;5020108;28;20078;-80
2023/02/14 09:39:01;;;;;;;42.80;14.18;;;10.10;99.90;;;-144.05;55.58;56946.53;5049456;28;20128;-80
2023/02/14 09:42:21;;;;;;;34.45;14.20;;;10.30;99.90;;;-144.05;54.80;56959.28;5023815;28;20119;-82
2023/02/14 09:44:59;;;;;;;38.75;13.73;;;10.40;99.90;;;-144.05;53.28;56929.53;5039531;28;20030;-81
2023/02/14 09:47:55;;;;;;;34.45;12.32;;;10.40;99.90;;;-144.05;53.36;56921.06;5020202;28;20022;-81
2023/02/14 09:50:35;;;;;;;34.90;12.93;;;10.50;99.90;;;-144.05;53.51;56948.66;5020470;28;20043;-82
2023/02/14 09:53:19;;;;;;;35.50;12.88;;;10.60;99.90;;;-144.05;53.21;56959.28;5038497;28;20272;-80
2023/02/14 09:56:16;;;;;;;40.28;14.32;;;10.60;99.90;;;-144.05;52.33;56955.03;5016777;28;20186;-82
2023/02/14 09:59:21;;;;;;;28.42;13.27;;;10.80;99.90;;;-144.05;51.78;56938.03;5034528;28;20025;-80
2023/02/14 10:02:00;;;;;;;22.23;12.25;;;11.00;99.90;;;-144.05;51.19;56946.53;5034828;28;20026;-80
2023/02/14 10:05:05;;;;;;;28.90;11.65;;;11.20;99.90;;;-144.05;51.13;56976.28;5016535;28;20033;-83
2023/02/14 10:08:32;;;;;;;27.17;12.45;;;11.30;99.90;;;-144.05;51.03;56946.53;5033661;28;20040;-82
2023/02/14 10:11:19;;;;;;;42.57;13.23;;;11.40;99.90;;;-144.05;51.35;56963.53;5036498;28;20057;-81
2023/02/14 10:14:07;;;;;;;37.47;12.07;;;11.60;99.90;;;-144.05;50.41;56965.66;5036874;28;20183;-81
2023/02/14 10:17:08;;;;;;;38.17;12.80;;;11.70;99.90;;;-144.05;50.12;56914.69;5018664;28;20451;-82
2023/02/14 10:19:48;;;;;;;26.63;12.75;;;11.90;99.90;;;-144.05;49.76;56942.28;5018379;28;20091;-82
2023/02/14 10:22:53;;;;;;;33.30;12.35;;;12.00;99.90;;;-144.05;49.28;56946.53;5035831;28;20026;-81
2023/02/14 10:25:47;;;;;;;34.78;12.57;;;12.30;99.90;;;-144.05;48.52;56952.91;5035220;28;20147;-81
2023/02/14 10:28:20;;;;;;;25.83;11.20;;;12.40;99.90;;;-144.05;48.17;56950.78;5034849;28;20017;-82
2023/02/14 10:31:20;;;;;;;30.35;10.80;;;12.60;99.90;;;-144.05;48.00;56940.16;5017795;28;20353;-83
2023/02/14 10:33:55;;;;;;;18.58;8.60;;;13.00;99.90;;;-144.05;46.66;56929.53;5038942;28;20087;-81
2023/02/14 10:36:54;;;;;;;13.43;6.75;;;13.30;99.90;;;-144.05;44.53;56942.28;5018299;28;20052;-80
2023/02/14 10:39:44;;;;;;;11.02;6.90;;;13.70;99.90;;;-144.05;42.94;56942.28;5037535;28;20061;-81
2023/02/14 10:42:37;;;;;;;12.13;6.22;;;14.00;99.90;;;-144.05;42.39;56942.28;5037230;28;20514;-82
2023/02/14 10:46:01;;;;;;;9.32;6.13;;;14.00;99.90;;;-144.05;41.67;56967.78;5037461;28;20044;-81